sensor_id;sensor_type;location;lat;lon;timestamp;P1;durP1;ratioP1;P2;durP2;ratioP2
5357;SDS011;2702;51.014;7.170;2023-05-09T00:01:03;20.00;;;17.90;;
5357;SDS011;2702;51.014;7.170;2023-05-09T00:03:31;20.07;;;18.17;;
5357;SDS011;2702;51.014;7.170;2023-05-09T00:06:10;20.10;;;18.00;;
5357;SDS011;2702;51.014;7.170;2023-05-09T00:08:38;20.70;;;18.33;;
5357;SDS011;2702;51.014;7.170;2023-05-09T00:11:08;19.53;;;17.70;;
5357;SDS011;2702;51.014;7.170;2023-05-09T00:13:35;20.00;;;18.00;;
5357;SDS011;2702;51.014;7.170;2023-05-09T00:16:08;19.20;;;17.30;;
5357;SDS011;2702;51.014;7.170;2023-05-09T00:18:35;20.30;;;18.27;;
5357;SDS011;2702;51.014;7.170;2023-05-09T00:21:02;19.30;;;17.30;;
5357;SDS011;2702;51.014;7.170;2023-05-09T00:23:29;21.30;;;19.20;;
5357;SDS011;2702;51.014;7.170;2023-05-09T00:26:02;19.97;;;18.07;;
5357;SDS011;2702;51.014;7.170;2023-05-09T00:28:28;19.70;;;17.80;;
5357;SDS011;2702;51.014;7.170;2023-05-09T00:31:00;19.93;;;17.93;;
5357;SDS011;2702;51.014;7.170;2023-05-09T00:33:29;20.00;;;18.00;;
5357;SDS011;2702;51.014;7.170;2023-05-09T00:35:56;19.90;;;18.07;;
5357;SDS011;2702;51.014;7.170;2023-05-09T00:38:23;19.63;;;17.47;;
5357;SDS011;2702;51.014;7.170;2023-05-09T00:40:53;19.77;;;17.87;;
5357;SDS011;2702;51.014;7.170;2023-05-09T00:43:20;20.03;;;18.13;;
5357;SDS011;2702;51.014;7.170;2023-05-09T00:45:47;25.30;;;18.40;;
5357;SDS011;2702;51.014;7.170;2023-05-09T00:48:15;20.67;;;18.67;;
5357;SDS011;2702;51.014;7.170;2023-05-09T00:50:43;21.53;;;19.50;;
5357;SDS011;2702;51.014;7.170;2023-05-09T00:53:18;20.80;;;18.70;;
5357;SDS011;2702;51.014;7.170;2023-05-09T00:55:45;21.80;;;19.60;;
5357;SDS011;2702;51.014;7.170;2023-05-09T00:58:12;21.57;;;19.47;;
5357;SDS011;2702;51.014;7.170;2023-05-09T01:00:42;22.33;;;19.60;;
5357;SDS011;2702;51.014;7.170;2023-05-09T01:03:09;21.47;;;19.13;;
5357;SDS011;2702;51.014;7.170;2023-05-09T01:08:40;20.70;;;18.70;;
5357;SDS011;2702;51.014;7.170;2023-05-09T01:20:37;23.23;;;19.60;;
5357;SDS011;2702;51.014;7.170;2023-05-09T01:26:02;20.03;;;17.90;;
5357;SDS011;2702;51.014;7.170;2023-05-09T01:32:58;21.50;;;19.20;;
5357;SDS011;2702;51.014;7.170;2023-05-09T01:35:03;21.43;;;19.17;;
5357;SDS011;2702;51.014;7.170;2023-05-09T01:37:32;21.90;;;19.80;;
5357;SDS011;2702;51.014;7.170;2023-05-09T01:42:39;21.77;;;19.53;;
5357;SDS011;2702;51.014;7.170;2023-05-09T01:45:13;21.03;;;18.90;;
5357;SDS011;2702;51.014;7.170;2023-05-09T01:47:47;22.63;;;20.27;;
5357;SDS011;2702;51.014;7.170;2023-05-09T01:50:15;20.23;;;18.20;;
5357;SDS011;2702;51.014;7.170;2023-05-09T01:52:45;21.27;;;18.43;;
5357;SDS011;2702;51.014;7.170;2023-05-09T01:55:15;22.07;;;19.77;;
5357;SDS011;2702;51.014;7.170;2023-05-09T01:57:44;23.20;;;20.70;;
5357;SDS011;2702;51.014;7.170;2023-05-09T02:00:14;23.53;;;20.83;;
5357;SDS011;2702;51.014;7.170;2023-05-09T02:03:01;22.77;;;20.37;;
5357;SDS011;2702;51.014;7.170;2023-05-09T02:05:29;22.87;;;20.53;;
5357;SDS011;2702;51.014;7.170;2023-05-09T02:07:59;23.23;;;20.93;;
5357;SDS011;2702;51.014;7.170;2023-05-09T02:10:26;23.37;;;21.07;;
5357;SDS011;2702;51.014;7.170;2023-05-09T02:12:57;24.60;;;22.10;;
5357;SDS011;2702;51.014;7.170;2023-05-09T02:15:23;23.47;;;21.00;;
5357;SDS011;2702;51.014;7.170;2023-05-09T02:17:51;23.37;;;21.03;;
5357;SDS011;2702;51.014;7.170;2023-05-09T02:20:17;25.00;;;22.37;;
5357;SDS011;2702;51.014;7.170;2023-05-09T02:22:43;24.80;;;22.20;;
5357;SDS011;2702;51.014;7.170;2023-05-09T02:25:15;23.10;;;20.80;;
5357;SDS011;2702;51.014;7.170;2023-05-09T02:27:45;22.57;;;20.27;;
5357;SDS011;2702;51.014;7.170;2023-05-09T02:30:22;23.17;;;20.87;;
5357;SDS011;2702;51.014;7.170;2023-05-09T02:32:55;24.40;;;22.00;;
5357;SDS011;2702;51.014;7.170;2023-05-09T02:35:26;24.63;;;22.03;;
5357;SDS011;2702;51.014;7.170;2023-05-09T02:37:53;23.40;;;20.90;;
5357;SDS011;2702;51.014;7.170;2023-05-09T02:40:25;23.60;;;21.10;;
5357;SDS011;2702;51.014;7.170;2023-05-09T02:43:16;23.70;;;21.27;;
5357;SDS011;2702;51.014;7.170;2023-05-09T02:45:44;23.73;;;20.90;;
5357;SDS011;2702;51.014;7.170;2023-05-09T02:48:10;23.17;;;20.70;;
5357;SDS011;2702;51.014;7.170;2023-05-09T02:50:37;23.13;;;20.70;;
5357;SDS011;2702;51.014;7.170;2023-05-09T02:53:06;23.00;;;20.63;;
5357;SDS011;2702;51.014;7.170;2023-05-09T02:55:33;23.30;;;20.87;;
5357;SDS011;2702;51.014;7.170;2023-05-09T02:58:00;24.67;;;22.17;;
5357;SDS011;2702;51.014;7.170;2023-05-09T03:00:30;23.20;;;20.90;;
5357;SDS011;2702;51.014;7.170;2023-05-09T03:02:59;23.00;;;20.60;;
5357;SDS011;2702;51.014;7.170;2023-05-09T03:05:25;24.90;;;22.50;;
5357;SDS011;2702;51.014;7.170;2023-05-09T03:07:52;22.90;;;20.47;;
5357;SDS011;2702;51.014;7.170;2023-05-09T03:10:30;23.50;;;20.90;;
5357;SDS011;2702;51.014;7.170;2023-05-09T03:13:01;24.23;;;21.63;;
5357;SDS011;2702;51.014;7.170;2023-05-09T03:15:27;22.53;;;20.13;;
5357;SDS011;2702;51.014;7.170;2023-05-09T03:17:56;25.80;;;23.10;;
5357;SDS011;2702;51.014;7.170;2023-05-09T03:23:15;25.10;;;21.83;;
5357;SDS011;2702;51.014;7.170;2023-05-09T03:25:45;22.60;;;20.23;;
5357;SDS011;2702;51.014;7.170;2023-05-09T03:28:14;24.47;;;21.87;;
5357;SDS011;2702;51.014;7.170;2023-05-09T03:30:40;24.50;;;21.80;;
5357;SDS011;2702;51.014;7.170;2023-05-09T03:33:11;24.80;;;22.23;;
5357;SDS011;2702;51.014;7.170;2023-05-09T03:35:37;24.10;;;21.13;;
5357;SDS011;2702;51.014;7.170;2023-05-09T03:38:04;24.60;;;22.00;;
5357;SDS011;2702;51.014;7.170;2023-05-09T03:40:30;24.70;;;22.07;;
5357;SDS011;2702;51.014;7.170;2023-05-09T03:43:05;24.30;;;21.80;;
5357;SDS011;2702;51.014;7.170;2023-05-09T03:45:37;24.43;;;21.70;;
5357;SDS011;2702;51.014;7.170;2023-05-09T03:48:08;23.03;;;20.60;;
5357;SDS011;2702;51.014;7.170;2023-05-09T03:50:41;24.00;;;21.47;;
5357;SDS011;2702;51.014;7.170;2023-05-09T03:53:09;24.17;;;21.57;;
5357;SDS011;2702;51.014;7.170;2023-05-09T03:55:37;24.10;;;21.50;;
5357;SDS011;2702;51.014;7.170;2023-05-09T03:58:04;23.60;;;21.10;;
5357;SDS011;2702;51.014;7.170;2023-05-09T04:00:34;24.83;;;21.87;;
5357;SDS011;2702;51.014;7.170;2023-05-09T04:03:08;23.67;;;21.20;;
5357;SDS011;2702;51.014;7.170;2023-05-09T04:05:39;22.57;;;20.23;;
5357;SDS011;2702;51.014;7.170;2023-05-09T04:08:11;23.87;;;21.27;;
5357;SDS011;2702;51.014;7.170;2023-05-09T04:10:47;24.70;;;22.03;;
5357;SDS011;2702;51.014;7.170;2023-05-09T04:13:38;23.83;;;21.43;;
5357;SDS011;2702;51.014;7.170;2023-05-09T04:16:12;26.93;;;21.27;;
5357;SDS011;2702;51.014;7.170;2023-05-09T04:18:42;25.60;;;21.93;;
5357;SDS011;2702;51.014;7.170;2023-05-09T04:21:08;24.90;;;22.20;;
5357;SDS011;2702;51.014;7.170;2023-05-09T04:23:36;23.47;;;20.73;;
5357;SDS011;2702;51.014;7.170;2023-05-09T04:26:04;26.83;;;23.93;;
5357;SDS011;2702;51.014;7.170;2023-05-09T04:28:30;24.17;;;21.67;;
5357;SDS011;2702;51.014;7.170;2023-05-09T04:30:57;23.93;;;20.80;;
5357;SDS011;2702;51.014;7.170;2023-05-09T04:33:36;24.37;;;21.77;;
5357;SDS011;2702;51.014;7.170;2023-05-09T04:36:04;25.93;;;23.00;;
5357;SDS011;2702;51.014;7.170;2023-05-09T04:38:32;24.90;;;22.40;;
5357;SDS011;2702;51.014;7.170;2023-05-09T04:40:59;27.63;;;22.50;;
5357;SDS011;2702;51.014;7.170;2023-05-09T04:43:27;25.43;;;22.73;;
5357;SDS011;2702;51.014;7.170;2023-05-09T04:45:56;23.90;;;21.10;;
5357;SDS011;2702;51.014;7.170;2023-05-09T04:48:25;24.97;;;21.97;;
5357;SDS011;2702;51.014;7.170;2023-05-09T04:50:51;24.73;;;22.13;;
5357;SDS011;2702;51.014;7.170;2023-05-09T04:53:17;23.60;;;21.07;;
5357;SDS011;2702;51.014;7.170;2023-05-09T04:55:46;24.57;;;22.20;;
5357;SDS011;2702;51.014;7.170;2023-05-09T04:58:14;26.57;;;23.80;;
5357;SDS011;2702;51.014;7.170;2023-05-09T05:00:41;25.53;;;22.83;;
5357;SDS011;2702;51.014;7.170;2023-05-09T05:03:07;22.70;;;20.30;;
5357;SDS011;2702;51.014;7.170;2023-05-09T05:05:37;26.87;;;22.60;;
5357;SDS011;2702;51.014;7.170;2023-05-09T05:08:05;24.33;;;21.30;;
5357;SDS011;2702;51.014;7.170;2023-05-09T05:10:36;24.00;;;21.57;;
5357;SDS011;2702;51.014;7.170;2023-05-09T05:13:15;26.23;;;22.27;;
5357;SDS011;2702;51.014;7.170;2023-05-09T05:15:48;23.20;;;20.80;;
5357;SDS011;2702;51.014;7.170;2023-05-09T05:18:14;25.13;;;22.63;;
5357;SDS011;2702;51.014;7.170;2023-05-09T05:20:41;25.60;;;22.47;;
5357;SDS011;2702;51.014;7.170;2023-05-09T05:23:14;24.87;;;22.10;;
5357;SDS011;2702;51.014;7.170;2023-05-09T05:25:41;24.63;;;22.03;;
5357;SDS011;2702;51.014;7.170;2023-05-09T05:28:07;27.50;;;23.97;;
5357;SDS011;2702;51.014;7.170;2023-05-09T05:30:34;23.80;;;21.33;;
5357;SDS011;2702;51.014;7.170;2023-05-09T05:33:01;25.80;;;22.20;;
5357;SDS011;2702;51.014;7.170;2023-05-09T05:35:37;24.93;;;22.10;;
5357;SDS011;2702;51.014;7.170;2023-05-09T05:38:04;24.47;;;21.93;;
5357;SDS011;2702;51.014;7.170;2023-05-09T05:40:31;24.53;;;21.87;;
5357;SDS011;2702;51.014;7.170;2023-05-09T05:43:00;25.33;;;22.63;;
5357;SDS011;2702;51.014;7.170;2023-05-09T05:45:30;25.87;;;22.97;;
5357;SDS011;2702;51.014;7.170;2023-05-09T05:47:57;25.77;;;23.03;;
5357;SDS011;2702;51.014;7.170;2023-05-09T05:50:24;23.07;;;20.40;;
5357;SDS011;2702;51.014;7.170;2023-05-09T05:52:51;25.57;;;22.87;;
5357;SDS011;2702;51.014;7.170;2023-05-09T05:55:18;25.70;;;22.80;;
5357;SDS011;2702;51.014;7.170;2023-05-09T05:57:45;27.20;;;23.00;;
5357;SDS011;2702;51.014;7.170;2023-05-09T06:00:13;24.00;;;21.40;;
5357;SDS011;2702;51.014;7.170;2023-05-09T06:02:47;25.97;;;23.20;;
5357;SDS011;2702;51.014;7.170;2023-05-09T06:05:29;25.87;;;23.20;;
5357;SDS011;2702;51.014;7.170;2023-05-09T06:07:56;26.20;;;23.37;;
5357;SDS011;2702;51.014;7.170;2023-05-09T06:10:28;24.50;;;21.90;;
5357;SDS011;2702;51.014;7.170;2023-05-09T06:12:54;24.27;;;21.80;;
5357;SDS011;2702;51.014;7.170;2023-05-09T06:15:21;25.57;;;22.77;;
5357;SDS011;2702;51.014;7.170;2023-05-09T06:17:49;24.17;;;20.70;;
5357;SDS011;2702;51.014;7.170;2023-05-09T06:20:17;23.93;;;21.33;;
5357;SDS011;2702;51.014;7.170;2023-05-09T06:22:49;21.40;;;19.40;;
5357;SDS011;2702;51.014;7.170;2023-05-09T06:25:19;24.63;;;22.20;;
5357;SDS011;2702;51.014;7.170;2023-05-09T06:27:45;24.00;;;21.40;;
5357;SDS011;2702;51.014;7.170;2023-05-09T06:30:12;24.20;;;21.60;;
5357;SDS011;2702;51.014;7.170;2023-05-09T06:32:43;22.37;;;20.13;;
5357;SDS011;2702;51.014;7.170;2023-05-09T06:35:09;23.40;;;20.90;;
5357;SDS011;2702;51.014;7.170;2023-05-09T06:37:36;23.57;;;21.20;;
5357;SDS011;2702;51.014;7.170;2023-05-09T06:42:53;22.63;;;20.23;;
5357;SDS011;2702;51.014;7.170;2023-05-09T06:45:19;23.97;;;21.53;;
5357;SDS011;2702;51.014;7.170;2023-05-09T06:47:47;22.60;;;20.30;;
5357;SDS011;2702;51.014;7.170;2023-05-09T06:50:22;25.33;;;20.50;;
5357;SDS011;2702;51.014;7.170;2023-05-09T06:52:49;22.03;;;19.83;;
5357;SDS011;2702;51.014;7.170;2023-05-09T06:55:16;20.90;;;18.97;;
5357;SDS011;2702;51.014;7.170;2023-05-09T06:57:42;21.87;;;19.47;;
5357;SDS011;2702;51.014;7.170;2023-05-09T07:00:19;22.70;;;19.90;;
5357;SDS011;2702;51.014;7.170;2023-05-09T07:02:46;19.47;;;17.60;;
5357;SDS011;2702;51.014;7.170;2023-05-09T07:05:12;21.10;;;19.00;;
5357;SDS011;2702;51.014;7.170;2023-05-09T07:07:39;21.83;;;19.63;;
5357;SDS011;2702;51.014;7.170;2023-05-09T07:10:06;20.80;;;18.80;;
5357;SDS011;2702;51.014;7.170;2023-05-09T07:12:42;20.70;;;18.60;;
5357;SDS011;2702;51.014;7.170;2023-05-09T07:15:08;18.77;;;16.87;;
5357;SDS011;2702;51.014;7.170;2023-05-09T07:17:35;18.13;;;16.43;;
5357;SDS011;2702;51.014;7.170;2023-05-09T07:20:02;18.40;;;16.50;;
5357;SDS011;2702;51.014;7.170;2023-05-09T07:22:29;19.10;;;17.20;;
5357;SDS011;2702;51.014;7.170;2023-05-09T07:24:57;19.50;;;17.40;;
5357;SDS011;2702;51.014;7.170;2023-05-09T07:27:23;18.07;;;16.37;;
5357;SDS011;2702;51.014;7.170;2023-05-09T07:30:00;17.73;;;15.87;;
5357;SDS011;2702;51.014;7.170;2023-05-09T07:32:33;15.20;;;13.70;;
5357;SDS011;2702;51.014;7.170;2023-05-09T07:35:16;15.27;;;13.87;;
5357;SDS011;2702;51.014;7.170;2023-05-09T07:37:43;15.17;;;13.80;;
5357;SDS011;2702;51.014;7.170;2023-05-09T07:40:11;14.23;;;12.83;;
5357;SDS011;2702;51.014;7.170;2023-05-09T07:42:38;14.07;;;12.70;;
5357;SDS011;2702;51.014;7.170;2023-05-09T07:45:04;13.20;;;11.97;;
5357;SDS011;2702;51.014;7.170;2023-05-09T07:47:31;13.00;;;11.80;;
5357;SDS011;2702;51.014;7.170;2023-05-09T07:50:10;12.47;;;11.23;;
5357;SDS011;2702;51.014;7.170;2023-05-09T07:52:49;13.63;;;12.17;;
5357;SDS011;2702;51.014;7.170;2023-05-09T07:55:20;11.97;;;10.90;;
5357;SDS011;2702;51.014;7.170;2023-05-09T07:57:46;11.40;;;10.33;;
5357;SDS011;2702;51.014;7.170;2023-05-09T08:00:16;9.93;;;9.03;;
5357;SDS011;2702;51.014;7.170;2023-05-09T08:02:51;11.23;;;10.23;;
5357;SDS011;2702;51.014;7.170;2023-05-09T08:05:25;11.33;;;10.20;;
5357;SDS011;2702;51.014;7.170;2023-05-09T08:08:00;11.23;;;10.23;;
5357;SDS011;2702;51.014;7.170;2023-05-09T08:10:27;11.97;;;10.80;;
5357;SDS011;2702;51.014;7.170;2023-05-09T08:12:55;10.67;;;9.77;;
5357;SDS011;2702;51.014;7.170;2023-05-09T08:15:22;9.97;;;9.13;;
5357;SDS011;2702;51.014;7.170;2023-05-09T08:17:48;9.10;;;8.20;;
5357;SDS011;2702;51.014;7.170;2023-05-09T08:20:15;8.33;;;7.60;;
5357;SDS011;2702;51.014;7.170;2023-05-09T08:22:42;8.67;;;7.93;;
5357;SDS011;2702;51.014;7.170;2023-05-09T08:25:08;7.97;;;7.27;;
5357;SDS011;2702;51.014;7.170;2023-05-09T08:27:36;7.77;;;7.07;;
5357;SDS011;2702;51.014;7.170;2023-05-09T08:30:02;7.90;;;7.10;;
5357;SDS011;2702;51.014;7.170;2023-05-09T08:32:31;7.20;;;6.70;;
5357;SDS011;2702;51.014;7.170;2023-05-09T08:34:57;7.23;;;6.73;;
5357;SDS011;2702;51.014;7.170;2023-05-09T08:37:25;6.97;;;6.33;;
5357;SDS011;2702;51.014;7.170;2023-05-09T08:39:53;9.07;;;7.70;;
5357;SDS011;2702;51.014;7.170;2023-05-09T08:42:20;8.97;;;8.27;;
5357;SDS011;2702;51.014;7.170;2023-05-09T08:44:47;6.57;;;5.93;;
5357;SDS011;2702;51.014;7.170;2023-05-09T08:47:14;7.30;;;6.70;;
5357;SDS011;2702;51.014;7.170;2023-05-09T08:52:37;6.70;;;6.10;;
5357;SDS011;2702;51.014;7.170;2023-05-09T08:55:07;6.87;;;6.37;;
5357;SDS011;2702;51.014;7.170;2023-05-09T08:57:33;7.10;;;5.90;;
5357;SDS011;2702;51.014;7.170;2023-05-09T09:00:00;6.00;;;5.50;;
5357;SDS011;2702;51.014;7.170;2023-05-09T09:02:31;6.17;;;5.60;;
5357;SDS011;2702;51.014;7.170;2023-05-09T09:07:48;4.83;;;4.43;;
5357;SDS011;2702;51.014;7.170;2023-05-09T09:10:15;4.80;;;4.50;;
5357;SDS011;2702;51.014;7.170;2023-05-09T09:12:46;5.27;;;4.87;;
5357;SDS011;2702;51.014;7.170;2023-05-09T09:15:14;5.00;;;4.53;;
5357;SDS011;2702;51.014;7.170;2023-05-09T09:17:51;4.83;;;4.43;;
5357;SDS011;2702;51.014;7.170;2023-05-09T09:20:21;5.50;;;5.00;;
5357;SDS011;2702;51.014;7.170;2023-05-09T09:22:51;4.80;;;4.30;;
5357;SDS011;2702;51.014;7.170;2023-05-09T09:25:34;3.43;;;3.23;;
5357;SDS011;2702;51.014;7.170;2023-05-09T09:28:03;3.13;;;2.67;;
5357;SDS011;2702;51.014;7.170;2023-05-09T09:30:29;5.13;;;3.37;;
5357;SDS011;2702;51.014;7.170;2023-05-09T09:32:59;2.57;;;2.30;;
5357;SDS011;2702;51.014;7.170;2023-05-09T09:35:25;2.53;;;2.43;;
5357;SDS011;2702;51.014;7.170;2023-05-09T09:37:55;2.97;;;2.70;;
5357;SDS011;2702;51.014;7.170;2023-05-09T09:40:24;2.87;;;2.67;;
5357;SDS011;2702;51.014;7.170;2023-05-09T09:42:53;4.50;;;4.17;;
5357;SDS011;2702;51.014;7.170;2023-05-09T09:45:19;4.87;;;4.47;;
5357;SDS011;2702;51.014;7.170;2023-05-09T09:47:46;5.50;;;5.00;;
5357;SDS011;2702;51.014;7.170;2023-05-09T09:50:41;5.80;;;5.40;;
5357;SDS011;2702;51.014;7.170;2023-05-09T09:53:11;5.60;;;5.20;;
5357;SDS011;2702;51.014;7.170;2023-05-09T09:55:48;5.50;;;5.00;;
5357;SDS011;2702;51.014;7.170;2023-05-09T09:58:17;5.40;;;5.00;;
5357;SDS011;2702;51.014;7.170;2023-05-09T10:00:47;4.30;;;3.90;;
5357;SDS011;2702;51.014;7.170;2023-05-09T10:03:39;4.23;;;3.73;;
5357;SDS011;2702;51.014;7.170;2023-05-09T10:06:08;4.23;;;3.83;;
5357;SDS011;2702;51.014;7.170;2023-05-09T10:08:37;4.23;;;3.83;;
5357;SDS011;2702;51.014;7.170;2023-05-09T10:11:08;4.27;;;3.90;;
5357;SDS011;2702;51.014;7.170;2023-05-09T10:13:35;4.00;;;3.70;;
5357;SDS011;2702;51.014;7.170;2023-05-09T10:16:06;4.57;;;4.17;;
5357;SDS011;2702;51.014;7.170;2023-05-09T10:18:35;3.60;;;3.40;;
5357;SDS011;2702;51.014;7.170;2023-05-09T10:21:04;4.00;;;3.70;;
5357;SDS011;2702;51.014;7.170;2023-05-09T10:23:44;3.93;;;3.73;;
5357;SDS011;2702;51.014;7.170;2023-05-09T10:26:17;5.20;;;4.70;;
5357;SDS011;2702;51.014;7.170;2023-05-09T10:28:56;4.30;;;4.00;;
5357;SDS011;2702;51.014;7.170;2023-05-09T10:31:30;3.67;;;3.37;;
5357;SDS011;2702;51.014;7.170;2023-05-09T10:34:01;3.33;;;3.13;;
5357;SDS011;2702;51.014;7.170;2023-05-09T10:36:38;4.00;;;3.30;;
5357;SDS011;2702;51.014;7.170;2023-05-09T10:39:04;4.00;;;3.70;;
5357;SDS011;2702;51.014;7.170;2023-05-09T10:41:32;3.37;;;2.93;;
5357;SDS011;2702;51.014;7.170;2023-05-09T10:43:59;4.27;;;3.63;;
5357;SDS011;2702;51.014;7.170;2023-05-09T10:46:26;3.90;;;2.90;;
5357;SDS011;2702;51.014;7.170;2023-05-09T10:49:02;3.00;;;2.80;;
5357;SDS011;2702;51.014;7.170;2023-05-09T10:51:29;3.83;;;3.50;;
5357;SDS011;2702;51.014;7.170;2023-05-09T10:53:55;4.10;;;3.70;;
5357;SDS011;2702;51.014;7.170;2023-05-09T10:58:57;3.43;;;3.23;;
5357;SDS011;2702;51.014;7.170;2023-05-09T11:01:32;5.87;;;3.10;;
5357;SDS011;2702;51.014;7.170;2023-05-09T11:04:00;3.40;;;2.60;;
5357;SDS011;2702;51.014;7.170;2023-05-09T11:12:13;4.50;;;3.60;;
5357;SDS011;2702;51.014;7.170;2023-05-09T11:14:43;4.67;;;3.70;;
5357;SDS011;2702;51.014;7.170;2023-05-09T11:17:31;5.67;;;5.17;;
5357;SDS011;2702;51.014;7.170;2023-05-09T11:20:05;7.03;;;4.20;;
5357;SDS011;2702;51.014;7.170;2023-05-09T11:22:38;5.37;;;4.97;;
5357;SDS011;2702;51.014;7.170;2023-05-09T11:25:23;5.80;;;5.20;;
5357;SDS011;2702;51.014;7.170;2023-05-09T11:27:56;6.00;;;5.50;;
5357;SDS011;2702;51.014;7.170;2023-05-09T11:33:27;6.27;;;5.67;;
5357;SDS011;2702;51.014;7.170;2023-05-09T11:36:14;8.10;;;6.00;;
5357;SDS011;2702;51.014;7.170;2023-05-09T11:38:44;8.20;;;6.67;;
5357;SDS011;2702;51.014;7.170;2023-05-09T11:41:12;6.97;;;6.27;;
5357;SDS011;2702;51.014;7.170;2023-05-09T11:44:00;5.50;;;5.00;;
5357;SDS011;2702;51.014;7.170;2023-05-09T11:46:32;6.00;;;5.60;;
5357;SDS011;2702;51.014;7.170;2023-05-09T11:49:00;5.60;;;5.20;;
5357;SDS011;2702;51.014;7.170;2023-05-09T11:51:28;5.87;;;5.07;;
5357;SDS011;2702;51.014;7.170;2023-05-09T11:53:54;5.13;;;4.63;;
5357;SDS011;2702;51.014;7.170;2023-05-09T11:56:21;5.23;;;4.73;;
5357;SDS011;2702;51.014;7.170;2023-05-09T11:58:50;5.10;;;4.60;;
5357;SDS011;2702;51.014;7.170;2023-05-09T12:01:17;4.73;;;4.33;;
5357;SDS011;2702;51.014;7.170;2023-05-09T12:03:44;5.90;;;4.10;;
5357;SDS011;2702;51.014;7.170;2023-05-09T12:06:17;4.80;;;4.40;;
5357;SDS011;2702;51.014;7.170;2023-05-09T12:08:46;3.93;;;3.60;;
5357;SDS011;2702;51.014;7.170;2023-05-09T12:11:13;3.93;;;3.57;;
5357;SDS011;2702;51.014;7.170;2023-05-09T12:13:46;4.13;;;3.67;;
5357;SDS011;2702;51.014;7.170;2023-05-09T12:16:18;4.37;;;3.97;;
5357;SDS011;2702;51.014;7.170;2023-05-09T12:18:48;4.50;;;4.10;;
5357;SDS011;2702;51.014;7.170;2023-05-09T12:21:17;3.73;;;3.43;;
5357;SDS011;2702;51.014;7.170;2023-05-09T12:23:46;4.43;;;3.60;;
5357;SDS011;2702;51.014;7.170;2023-05-09T12:26:12;3.43;;;3.23;;
5357;SDS011;2702;51.014;7.170;2023-05-09T12:28:40;3.87;;;3.00;;
5357;SDS011;2702;51.014;7.170;2023-05-09T12:31:14;3.53;;;3.23;;
5357;SDS011;2702;51.014;7.170;2023-05-09T12:33:43;4.60;;;2.80;;
5357;SDS011;2702;51.014;7.170;2023-05-09T12:36:10;3.27;;;3.07;;
5357;SDS011;2702;51.014;7.170;2023-05-09T12:38:56;4.10;;;3.70;;
5357;SDS011;2702;51.014;7.170;2023-05-09T12:41:24;3.40;;;3.20;;
5357;SDS011;2702;51.014;7.170;2023-05-09T12:43:50;3.13;;;2.93;;
5357;SDS011;2702;51.014;7.170;2023-05-09T12:46:17;3.40;;;3.10;;
5357;SDS011;2702;51.014;7.170;2023-05-09T12:48:48;3.47;;;2.87;;
5357;SDS011;2702;51.014;7.170;2023-05-09T12:51:27;3.10;;;2.90;;
5357;SDS011;2702;51.014;7.170;2023-05-09T12:53:55;3.77;;;3.10;;
5357;SDS011;2702;51.014;7.170;2023-05-09T12:56:32;2.97;;;2.77;;
5357;SDS011;2702;51.014;7.170;2023-05-09T12:59:00;3.40;;;3.20;;
5357;SDS011;2702;51.014;7.170;2023-05-09T13:01:27;3.03;;;2.83;;
5357;SDS011;2702;51.014;7.170;2023-05-09T13:04:09;3.20;;;2.70;;
5357;SDS011;2702;51.014;7.170;2023-05-09T13:06:45;2.77;;;2.57;;
5357;SDS011;2702;51.014;7.170;2023-05-09T13:09:17;3.17;;;2.87;;
5357;SDS011;2702;51.014;7.170;2023-05-09T13:11:44;2.77;;;2.60;;
5357;SDS011;2702;51.014;7.170;2023-05-09T13:14:21;3.07;;;2.60;;
5357;SDS011;2702;51.014;7.170;2023-05-09T13:16:51;3.23;;;2.93;;
5357;SDS011;2702;51.014;7.170;2023-05-09T13:19:24;2.73;;;2.40;;
5357;SDS011;2702;51.014;7.170;2023-05-09T13:21:53;2.37;;;2.20;;
5357;SDS011;2702;51.014;7.170;2023-05-09T13:24:20;3.43;;;2.73;;
5357;SDS011;2702;51.014;7.170;2023-05-09T13:26:46;2.70;;;2.50;;
5357;SDS011;2702;51.014;7.170;2023-05-09T13:29:13;2.37;;;2.27;;
5357;SDS011;2702;51.014;7.170;2023-05-09T13:31:40;2.97;;;2.80;;
5357;SDS011;2702;51.014;7.170;2023-05-09T13:34:13;3.50;;;3.20;;
5357;SDS011;2702;51.014;7.170;2023-05-09T13:37:00;2.60;;;2.50;;
5357;SDS011;2702;51.014;7.170;2023-05-09T13:39:32;4.23;;;3.20;;
5357;SDS011;2702;51.014;7.170;2023-05-09T13:42:02;3.53;;;2.90;;
5357;SDS011;2702;51.014;7.170;2023-05-09T13:44:28;3.10;;;2.57;;
5357;SDS011;2702;51.014;7.170;2023-05-09T13:49:46;2.77;;;2.57;;
5357;SDS011;2702;51.014;7.170;2023-05-09T13:52:12;3.90;;;2.60;;
5357;SDS011;2702;51.014;7.170;2023-05-09T13:54:40;2.50;;;2.30;;
5357;SDS011;2702;51.014;7.170;2023-05-09T13:57:07;2.90;;;2.70;;
5357;SDS011;2702;51.014;7.170;2023-05-09T13:59:33;3.80;;;3.50;;
5357;SDS011;2702;51.014;7.170;2023-05-09T14:02:00;5.63;;;3.60;;
5357;SDS011;2702;51.014;7.170;2023-05-09T14:04:27;2.50;;;2.30;;
5357;SDS011;2702;51.014;7.170;2023-05-09T14:07:00;3.13;;;2.83;;
5357;SDS011;2702;51.014;7.170;2023-05-09T14:09:30;3.07;;;2.87;;
5357;SDS011;2702;51.014;7.170;2023-05-09T14:12:03;4.00;;;3.70;;
5357;SDS011;2702;51.014;7.170;2023-05-09T14:14:30;3.87;;;3.47;;
5357;SDS011;2702;51.014;7.170;2023-05-09T14:16:56;3.40;;;3.10;;
5357;SDS011;2702;51.014;7.170;2023-05-09T14:19:23;3.90;;;3.60;;
5357;SDS011;2702;51.014;7.170;2023-05-09T14:21:55;3.73;;;3.43;;
5357;SDS011;2702;51.014;7.170;2023-05-09T14:24:30;3.80;;;3.50;;
5357;SDS011;2702;51.014;7.170;2023-05-09T14:26:57;3.60;;;3.30;;
5357;SDS011;2702;51.014;7.170;2023-05-09T14:29:24;3.97;;;3.50;;
5357;SDS011;2702;51.014;7.170;2023-05-09T14:31:50;3.60;;;3.30;;
5357;SDS011;2702;51.014;7.170;2023-05-09T14:34:25;3.73;;;3.53;;
5357;SDS011;2702;51.014;7.170;2023-05-09T14:36:52;3.20;;;3.00;;
5357;SDS011;2702;51.014;7.170;2023-05-09T14:39:21;3.70;;;3.43;;
5357;SDS011;2702;51.014;7.170;2023-05-09T14:41:48;4.90;;;4.50;;
5357;SDS011;2702;51.014;7.170;2023-05-09T14:44:14;5.13;;;4.50;;
5357;SDS011;2702;51.014;7.170;2023-05-09T14:46:42;6.77;;;6.27;;
5357;SDS011;2702;51.014;7.170;2023-05-09T14:49:09;7.33;;;6.73;;
5357;SDS011;2702;51.014;7.170;2023-05-09T14:51:35;8.00;;;7.20;;
5357;SDS011;2702;51.014;7.170;2023-05-09T14:54:05;8.50;;;7.70;;
5357;SDS011;2702;51.014;7.170;2023-05-09T14:56:32;7.70;;;7.00;;
5357;SDS011;2702;51.014;7.170;2023-05-09T14:59:01;8.50;;;7.80;;
5357;SDS011;2702;51.014;7.170;2023-05-09T15:01:32;5.63;;;5.13;;
5357;SDS011;2702;51.014;7.170;2023-05-09T15:03:58;8.77;;;8.07;;
5357;SDS011;2702;51.014;7.170;2023-05-09T15:06:25;11.33;;;10.10;;
5357;SDS011;2702;51.014;7.170;2023-05-09T15:08:53;12.50;;;11.60;;
5357;SDS011;2702;51.014;7.170;2023-05-09T15:11:19;14.77;;;13.27;;
5357;SDS011;2702;51.014;7.170;2023-05-09T15:13:46;12.60;;;11.50;;
5357;SDS011;2702;51.014;7.170;2023-05-09T15:16:13;13.10;;;11.90;;
5357;SDS011;2702;51.014;7.170;2023-05-09T15:18:39;12.20;;;10.63;;
5357;SDS011;2702;51.014;7.170;2023-05-09T15:21:12;12.17;;;11.00;;
5357;SDS011;2702;51.014;7.170;2023-05-09T15:23:39;11.07;;;10.17;;
5357;SDS011;2702;51.014;7.170;2023-05-09T15:26:06;10.07;;;9.17;;
5357;SDS011;2702;51.014;7.170;2023-05-09T15:28:38;11.27;;;10.27;;
5357;SDS011;2702;51.014;7.170;2023-05-09T15:31:05;9.43;;;8.63;;
5357;SDS011;2702;51.014;7.170;2023-05-09T15:33:32;11.47;;;10.47;;
5357;SDS011;2702;51.014;7.170;2023-05-09T15:36:02;13.00;;;11.53;;
5357;SDS011;2702;51.014;7.170;2023-05-09T15:38:43;11.40;;;10.33;;
5357;SDS011;2702;51.014;7.170;2023-05-09T15:41:17;11.07;;;10.07;;
5357;SDS011;2702;51.014;7.170;2023-05-09T15:43:47;10.87;;;9.90;;
5357;SDS011;2702;51.014;7.170;2023-05-09T15:46:13;10.33;;;9.53;;
5357;SDS011;2702;51.014;7.170;2023-05-09T15:48:40;10.30;;;9.40;;
5357;SDS011;2702;51.014;7.170;2023-05-09T15:54:00;10.67;;;9.77;;
5357;SDS011;2702;51.014;7.170;2023-05-09T15:56:30;10.27;;;9.33;;
5357;SDS011;2702;51.014;7.170;2023-05-09T15:58:57;9.60;;;8.80;;
5357;SDS011;2702;51.014;7.170;2023-05-09T16:01:26;10.37;;;9.47;;
5357;SDS011;2702;51.014;7.170;2023-05-09T16:03:53;10.87;;;9.93;;
5357;SDS011;2702;51.014;7.170;2023-05-09T16:06:20;11.57;;;10.57;;